Time;durP1;ratioP1;P1;durP2;ratioP2;P2;SDS_P1;SDS_P2;PMS_P1;PMS_P2;Temp;Humidity;BMP_temperature;BMP_pressure;BME280_temperature;BME280_humidity;BME280_pressure;Samples;Min_cycle;Max_cycle;Signal;HPM_P1;HPM_P2
2023/12/06 00:01:39;;;;;;;;;19.67;14.67;;;;;7.85;100.00;101291.72;5097110;27;45354;-70
2023/12/06 00:04:05;;;;;;;;;17.00;15.00;;;;;7.79;100.00;101290.09;5095927;27;45952;-69
2023/12/06 00:06:30;;;;;;;;;16.67;13.67;;;;;7.83;100.00;101286.50;5086627;27;45448;-70
2023/12/06 00:08:55;;;;;;;;;18.33;15.00;;;;;7.83;100.00;101289.13;5075808;27;45336;-70
2023/12/06 00:11:21;;;;;;;;;19.33;17.00;;;;;7.83;100.00;101288.25;5096086;27;45299;-70
2023/12/06 00:13:49;;;;;;;;;23.67;18.33;;;;;7.82;100.00;101295.28;5076103;27;48196;-70
2023/12/06 00:16:14;;;;;;;;;20.67;14.67;;;;;7.82;100.00;101297.91;5086948;27;45315;-70
2023/12/06 00:18:41;;;;;;;;;19.33;14.67;;;;;7.80;100.00;101293.63;5067792;27;45425;-70
2023/12/06 00:21:07;;;;;;;;;13.33;13.33;;;;;7.79;100.00;101291.88;5087534;27;45459;-70
2023/12/06 00:23:33;;;;;;;;;13.33;13.33;;;;;7.55;100.00;101255.72;5098685;27;46381;-70
2023/12/06 00:25:58;;;;;;;;;17.67;15.00;;;;;7.77;100.00;101302.47;5087854;27;45445;-70
2023/12/06 00:28:23;;;;;;;;;18.00;14.00;;;;;7.77;100.00;101299.84;5083217;27;45409;-70
2023/12/06 00:30:49;;;;;;;;;13.00;11.67;;;;;7.77;100.00;101299.84;5067605;27;45407;-70
2023/12/06 00:33:17;;;;;;;;;8.67;7.67;;;;;7.77;100.00;101304.22;5092255;27;45380;-70
2023/12/06 00:35:43;;;;;;;;;13.75;11.75;;;;;7.74;100.00;101307.81;5091491;27;45236;-70
2023/12/06 00:38:09;;;;;;;;;15.33;13.33;;;;;7.74;100.00;101306.94;5084362;27;45326;-69
2023/12/06 00:40:34;;;;;;;;;14.00;14.00;;;;;7.73;100.00;101300.81;5083315;27;45336;-70
2023/12/06 00:43:00;;;;;;;;;16.33;13.00;;;;;7.76;100.00;101308.63;5086894;27;46609;-70
2023/12/06 00:45:25;;;;;;;;;14.67;14.67;;;;;7.62;100.00;101291.50;5083554;27;45378;-70
2023/12/06 00:47:51;;;;;;;;;15.00;13.00;;;;;7.70;100.00;101306.16;5092708;27;45239;-70
2023/12/06 00:50:16;;;;;;;;;20.25;14.00;;;;;7.73;100.00;101313.97;5099611;27;45438;-70
2023/12/06 00:52:42;;;;;;;;;14.67;11.67;;;;;7.63;100.00;101303.75;5090902;27;46180;-70
2023/12/06 00:55:08;;;;;;;;;18.25;16.25;;;;;7.71;100.00;101318.44;5070753;27;45372;-70
2023/12/06 00:57:33;;;;;;;;;14.67;14.00;;;;;7.62;100.00;101304.66;5088052;27;45285;-70
2023/12/06 00:59:58;;;;;;;;;15.00;13.00;;;;;7.71;100.00;101326.34;5080883;27;45460;-70
2023/12/06 01:02:24;;;;;;;;;18.33;14.67;;;;;7.56;100.00;101308.31;5066835;28;48068;-70
2023/12/06 01:04:50;;;;;;;;;15.67;12.67;;;;;7.70;100.00;101332.50;5095686;27;45267;-70
2023/12/06 01:07:19;;;;;;;;;13.00;13.00;;;;;7.67;100.00;101329.06;5081793;27;45484;-70
2023/12/06 01:09:45;;;;;;;;;18.33;14.00;;;;;7.47;100.00;101308.56;5081276;27;45254;-70
2023/12/06 01:12:16;;;;;;;;;13.67;13.67;;;;;7.66;100.00;101343.13;5095157;27;45323;-70
2023/12/06 01:14:41;;;;;;;;;13.00;12.00;;;;;7.60;100.00;101338.91;5084732;27;45287;-70
2023/12/06 01:17:06;;;;;;;;;13.00;13.00;;;;;7.61;100.00;101340.66;5092158;27;45398;-70
2023/12/06 01:19:32;;;;;;;;;17.33;13.33;;;;;7.58;100.00;101332.84;5080178;27;45752;-70
2023/12/06 01:21:58;;;;;;;;;17.00;15.67;;;;;7.50;100.00;101332.16;5080977;27;46157;-70
2023/12/06 01:24:23;;;;;;;;;13.67;12.00;;;;;7.54;100.00;101341.72;5087225;27;45298;-70
2023/12/06 01:26:51;;;;;;;;;15.67;15.33;;;;;7.51;100.00;101349.69;5096878;27;45472;-69
2023/12/06 01:29:16;;;;;;;;;19.00;14.67;;;;;7.45;100.00;101349.84;5097378;27;45354;-69
2023/12/06 01:31:42;;;;;;;;;16.25;13.50;;;;;7.43;100.00;101356.06;5089970;27;45411;-69
2023/12/06 01:34:07;;;;;;;;;17.33;13.67;;;;;7.38;100.00;101353.53;5079417;27;45311;-70
2023/12/06 01:36:33;;;;;;;;;15.33;13.33;;;;;7.32;100.00;101354.56;5101518;27;45277;-70
2023/12/06 01:38:58;;;;;;;;;12.33;12.33;;;;;7.33;100.00;101358.03;5087826;27;45279;-70
2023/12/06 01:41:23;;;;;;;;;13.67;12.00;;;;;7.23;100.00;101348.66;5080567;27;45437;-70
2023/12/06 01:43:49;;;;;;;;;18.00;16.33;;;;;7.29;100.00;101356.41;5071320;28;45795;-70
2023/12/06 01:46:15;;;;;;;;;17.00;17.00;;;;;7.24;100.00;101360.88;5062401;28;45496;-69
2023/12/06 01:48:42;;;;;;;;;13.33;13.33;;;;;7.21;100.00;101356.56;5094744;27;45436;-70
2023/12/06 01:51:09;;;;;;;;;17.00;13.00;;;;;7.23;100.00;101374.97;5087005;27;46155;-70
2023/12/06 01:53:37;;;;;;;;;13.33;12.67;;;;;7.20;100.00;101370.63;5085424;27;45315;-70
2023/12/06 01:56:05;;;;;;;;;13.67;13.00;;;;;7.19;100.00;101389.09;5080923;27;45401;-70
2023/12/06 01:58:31;;;;;;;;;19.00;16.75;;;;;7.16;100.00;101381.28;5079932;27;45272;-70
2023/12/06 02:00:59;;;;;;;;;12.00;12.00;;;;;7.17;100.00;101388.25;5079990;27;46269;-70
2023/12/06 02:03:25;;;;;;;;;14.33;14.00;;;;;7.15;100.00;101385.66;5062806;28;45362;-70
2023/12/06 02:05:52;;;;;;;;;22.33;18.00;;;;;7.12;100.00;101388.38;5062039;27;45222;-70
2023/12/06 02:08:17;;;;;;;;;18.00;14.00;;;;;7.17;100.00;101397.00;5072067;27;45482;-70
2023/12/06 02:10:43;;;;;;;;;15.67;15.67;;;;;7.15;100.00;101405.84;5079520;27;48232;-70
2023/12/06 02:13:08;;;;;;;;;18.25;16.25;;;;;7.17;100.00;101406.66;5080939;27;45402;-70
2023/12/06 02:15:34;;;;;;;;;20.50;17.50;;;;;7.12;100.00;101409.41;5080038;27;45513;-70
2023/12/06 02:18:01;;;;;;;;;19.25;14.75;;;;;7.13;100.00;101399.75;5082296;27;45600;-70
2023/12/06 02:20:27;;;;;;;;;19.50;13.75;;;;;7.15;100.00;101411.97;5095366;27;46174;-70
2023/12/06 02:22:53;;;;;;;;;15.25;14.25;;;;;7.04;100.00;101394.69;5081854;27;45358;-69
2023/12/06 02:25:19;;;;;;;;;17.25;14.00;;;;;7.12;100.00;101400.66;5093530;27;45340;-69
2023/12/06 02:27:45;;;;;;;;;17.00;16.33;;;;;7.14;100.00;101412.88;5089075;27;45630;-69
2023/12/06 02:30:12;;;;;;;;;17.50;14.75;;;;;7.15;100.00;101419.84;5084123;27;45367;-70
2023/12/06 02:32:38;;;;;;;;;19.75;16.50;;;;;7.17;100.00;101422.44;5079423;27;45221;-70
2023/12/06 02:35:10;;;;;;;;;18.75;16.00;;;;;7.18;100.00;101427.69;5091757;27;45516;-70
2023/12/06 02:37:39;;;;;;;;;19.50;17.25;;;;;7.12;100.00;101417.31;5087887;27;45362;-70
2023/12/06 02:40:09;;;;;;;;;21.00;16.75;;;;;7.17;100.00;101422.44;5069424;27;45545;-70
2023/12/06 02:42:35;;;;;;;;;16.75;13.75;;;;;7.08;100.00;101420.03;5087724;27;45467;-70
2023/12/06 02:45:01;;;;;;;;;16.00;14.00;;;;;7.20;100.00;101432.88;5081461;27;45437;-70
2023/12/06 02:47:29;;;;;;;;;19.00;14.50;;;;;7.06;100.00;101408.69;5091988;27;45216;-70
2023/12/06 02:49:54;;;;;;;;;18.00;16.00;;;;;7.17;100.00;101425.94;5079930;27;46300;-69
2023/12/06 02:52:20;;;;;;;;;14.33;14.33;;;;;7.18;100.00;101424.19;5090112;27;45314;-69
2023/12/06 02:54:45;;;;;;;;;20.00;17.50;;;;;7.17;100.00;101431.19;5084113;27;45384;-70
2023/12/06 02:57:13;;;;;;;;;18.00;17.00;;;;;7.13;100.00;101429.53;5085526;27;45405;-70
2023/12/06 02:59:39;;;;;;;;;20.50;17.75;;;;;7.04;100.00;101413.97;5090375;27;45252;-70
2023/12/06 03:02:04;;;;;;;;;19.75;18.50;;;;;7.18;100.00;101450.47;5085940;27;52199;-70
2023/12/06 03:04:30;;;;;;;;;20.25;18.00;;;;;7.13;100.00;101437.41;5081926;27;45433;-70
2023/12/06 03:06:55;;;;;;;;;19.75;17.75;;;;;7.15;100.00;101450.56;5080587;27;45355;-70
2023/12/06 03:09:21;;;;;;;;;22.25;17.25;;;;;7.13;100.00;101447.94;5087327;27;45272;-70
2023/12/06 03:11:46;;;;;;;;;13.75;13.75;;;;;7.11;100.00;101448.88;5096551;27;45196;-70
2023/12/06 03:14:11;;;;;;;;;15.00;14.50;;;;;7.16;100.00;101450.53;5096154;27;45184;-70
2023/12/06 03:16:37;;;;;;;;;19.50;16.25;;;;;7.17;100.00;101454.00;5089393;27;45568;-70
2023/12/06 03:19:02;;;;;;;;;16.75;14.75;;;;;7.18;100.00;101450.47;5091412;27;46534;-70
2023/12/06 03:21:27;;;;;;;;;21.00;16.75;;;;;7.14;100.00;101438.28;5091381;27;45499;-70
2023/12/06 03:23:53;;;;;;;;;31.00;26.50;;;;;7.17;100.00;101444.34;5098710;27;45878;-70
2023/12/06 03:26:18;;;;;;;;;26.50;24.00;;;;;7.13;100.00;101431.31;5098071;27;45385;-70
2023/12/06 03:28:43;;;;;;;;;25.00;23.50;;;;;7.16;100.00;101437.38;5088960;27;48278;-70
2023/12/06 03:31:09;;;;;;;;;25.50;23.25;;;;;7.13;100.00;101426.91;5094195;27;45254;-70
2023/12/06 03:33:34;;;;;;;;;22.00;18.25;;;;;7.14;100.00;101417.25;5091957;27;45477;-70
2023/12/06 03:36:00;;;;;;;;;20.25;18.00;;;;;7.14;100.00;101419.88;5082564;27;45451;-69
2023/12/06 03:38:25;;;;;;;;;21.00;17.25;;;;;7.13;100.00;101426.06;5091539;27;45378;-70
2023/12/06 03:40:50;;;;;;;;;19.75;19.50;;;;;7.06;100.00;101408.69;5094273;27;45426;-70
2023/12/06 03:43:16;;;;;;;;;14.50;13.00;;;;;7.08;100.00;101412.13;5099458;27;45418;-70
2023/12/06 03:45:42;;;;;;;;;22.25;14.00;;;;;7.04;100.00;101410.47;5082870;27;45269;-70
2023/12/06 03:48:08;;;;;;;;;14.00;14.00;;;;;6.92;100.00;101390.59;5076139;27;47574;-70
2023/12/06 03:50:33;;;;;;;;;17.33;14.00;;;;;7.06;100.00;101412.19;5095560;27;45453;-70
2023/12/06 03:52:59;;;;;;;;;23.00;18.75;;;;;6.94;100.00;101388.78;5097373;27;45245;-70
2023/12/06 03:55:24;;;;;;;;;17.50;14.75;;;;;7.03;100.00;101409.63;5092678;27;45167;-70
2023/12/06 03:57:49;;;;;;;;;16.00;12.75;;;;;7.01;100.00;101411.41;5091464;27;45814;-70
2023/12/06 04:00:15;;;;;;;;;19.00;15.00;;;;;6.99;100.00;101404.47;5081181;27;49203;-69
2023/12/06 04:02:40;;;;;;;;;15.50;11.50;;;;;6.96;100.00;101407.16;5086751;27;45359;-69
2023/12/06 04:05:09;;;;;;;;;17.67;15.67;;;;;6.97;100.00;101415.00;5097443;27;45271;-70
2023/12/06 04:07:34;;;;;;;;;19.00;14.33;;;;;6.93;100.00;101421.25;5077362;27;47149;-70
2023/12/06 04:10:00;;;;;;;;;18.00;11.67;;;;;6.93;100.00;101421.25;5085980;27;45323;-69
2023/12/06 04:12:26;;;;;;;;;22.67;15.00;;;;;6.88;100.00;101425.72;5093734;27;45307;-69
2023/12/06 04:14:53;;;;;;;;;17.00;15.50;;;;;6.88;100.00;101419.59;5082343;27;45437;-69
2023/12/06 04:17:19;;;;;;;;;15.33;13.00;;;;;6.87;100.00;101426.66;5094777;27;45259;-69
2023/12/06 04:19:44;;;;;;;;;20.67;14.00;;;;;6.80;100.00;101418.03;5085424;27;45337;-69
2023/12/06 04:22:09;;;;;;;;;13.33;12.67;;;;;6.84;100.00;101412.72;5070115;27;45345;-70
2023/12/06 04:24:37;;;;;;;;;12.00;9.00;;;;;6.87;100.00;101425.78;5083248;27;45401;-70
2023/12/06 04:27:03;;;;;;;;;9.00;9.00;;;;;6.86;100.00;101427.53;5079384;27;47168;-70
2023/12/06 04:29:28;;;;;;;;;14.00;12.00;;;;;6.82;100.00;101424.13;5086838;27;45299;-70
2023/12/06 04:31:54;;;;;;;;;15.33;13.67;;;;;6.80;100.00;101423.28;5089458;27;45395;-69
2023/12/06 04:34:24;;;;;;;;;18.67;14.00;;;;;6.80;100.00;101427.69;5082902;27;45743;-70
2023/12/06 04:36:49;;;;;;;;;13.67;12.00;;;;;6.78;100.00;101432.09;5083231;27;46160;-70
2023/12/06 04:39:14;;;;;;;;;13.00;10.67;;;;;6.74;100.00;101425.19;5088822;27;45279;-70
2023/12/06 04:41:40;;;;;;;;;12.33;11.67;;;;;6.71;100.00;101431.34;5093408;27;45543;-70
2023/12/06 04:44:05;;;;;;;;;10.00;8.33;;;;;6.45;100.00;101396.88;5081339;27;45326;-69
2023/12/06 04:46:31;;;;;;;;;16.00;13.00;;;;;6.65;100.00;101435.88;5064029;28;47165;-69
2023/12/06 04:48:56;;;;;;;;;12.33;10.33;;;;;6.58;100.00;101439.53;5081078;27;45343;-69
2023/12/06 04:51:22;;;;;;;;;16.67;16.33;;;;;6.57;100.00;101451.81;5075969;27;45219;-69
2023/12/06 04:53:47;;;;;;;;;14.33;13.67;;;;;6.42;100.00;101433.72;5086162;27;45445;-70
2023/12/06 04:56:13;;;;;;;;;15.25;12.00;;;;;6.43;100.00;101443.34;5100295;27;46081;-70
2023/12/06 04:58:39;;;;;;;;;14.50;13.75;;;;;6.36;100.00;101449.59;5081489;27;45422;-70
2023/12/06 05:01:04;;;;;;;;;16.67;11.67;;;;;6.29;100.00;101445.38;5082019;27;45309;-69
2023/12/06 05:03:30;;;;;;;;;15.25;13.00;;;;;6.15;100.00;101437.75;5101320;27;45486;-70
2023/12/06 05:05:56;;;;;;;;;10.00;8.75;;;;;6.07;100.00;101444.91;5097444;27;46059;-70
2023/12/06 05:08:21;;;;;;;;;19.75;13.50;;;;;6.04;100.00;101444.97;5092396;27;45293;-69
2023/12/06 05:10:47;;;;;;;;;22.50;18.00;;;;;6.12;100.00;101468.44;5099152;27;45207;-69
2023/12/06 05:13:12;;;;;;;;;18.75;12.00;;;;;6.08;100.00;101462.41;5102102;27;45296;-69
2023/12/06 05:15:38;;;;;;;;;13.00;13.00;;;;;6.09;100.00;101474.63;5100850;27;46563;-69
2023/12/06 05:18:03;;;;;;;;;19.00;11.00;;;;;5.93;100.00;101456.53;5080893;27;45453;-69
2023/12/06 05:20:28;;;;;;;;;19.00;16.75;;;;;6.04;100.00;101480.84;5073287;28;46005;-69
2023/12/06 05:22:54;;;;;;;;;13.75;13.00;;;;;5.98;100.00;101473.97;5098482;27;45218;-70
2023/12/06 05:25:19;;;;;;;;;16.00;14.75;;;;;5.97;100.00;101480.09;5095480;27;45264;-70
2023/12/06 05:27:45;;;;;;;;;14.50;12.75;;;;;6.00;100.00;101484.44;5089326;27;45263;-70
2023/12/06 05:30:11;;;;;;;;;17.75;13.00;;;;;6.01;100.00;101487.03;5090932;27;45239;-69
2023/12/06 05:32:37;;;;;;;;;15.75;12.75;;;;;5.86;100.00;101468.91;5079775;27;45362;-69
2023/12/06 05:35:03;;;;;;;;;13.75;13.00;;;;;5.98;100.00;101487.09;5079292;27;46952;-70
2023/12/06 05:37:29;;;;;;;;;13.75;12.25;;;;;6.02;100.00;101498.41;5085188;27;45267;-70
2023/12/06 05:39:54;;;;;;;;;17.75;16.00;;;;;6.03;100.00;101494.88;5063976;28;45330;-70
2023/12/06 05:42:19;;;;;;;;;19.50;15.50;;;;;6.06;100.00;101498.31;5090229;27;45322;-70
2023/12/06 05:44:47;;;;;;;;;18.00;15.25;;;;;6.08;100.00;101493.91;5083610;27;45553;-70
2023/12/06 05:47:16;;;;;;;;;13.25;12.50;;;;;6.10;100.00;101497.38;5082787;27;45295;-70
2023/12/06 05:49:41;;;;;;;;;13.50;13.25;;;;;6.09;100.00;101497.38;5091509;27;45326;-70
2023/12/06 05:52:07;;;;;;;;;18.00;12.75;;;;;5.99;100.00;101480.94;5086677;27;45339;-70
2023/12/06 05:54:32;;;;;;;;;12.50;12.00;;;;;6.12;100.00;101503.44;5082966;27;45889;-70
2023/12/06 05:56:58;;;;;;;;;14.75;14.75;;;;;6.11;100.00;101509.63;5081774;27;45232;-70
2023/12/06 05:59:24;;;;;;;;;24.50;14.25;;;;;6.07;100.00;101505.31;5082182;27;45315;-70
2023/12/06 06:01:49;;;;;;;;;17.50;12.00;;;;;6.11;100.00;101508.75;5094275;27;45516;-69
2023/12/06 06:04:16;;;;;;;;;11.75;11.75;;;;;6.11;100.00;101516.63;5088816;27;45970;-70
2023/12/06 06:06:41;;;;;;;;;15.00;15.00;;;;;6.05;100.00;101509.69;5091146;27;45425;-70
2023/12/06 06:09:07;;;;;;;;;19.75;16.00;;;;;6.08;100.00;101519.31;5083774;27;45491;-70
2023/12/06 06:11:32;;;;;;;;;20.67;14.00;;;;;6.06;100.00;101519.31;5087415;27;45440;-70
2023/12/06 06:13:58;;;;;;;;;14.00;13.00;;;;;5.99;100.00;101498.47;5100534;27;46211;-70
2023/12/06 06:16:23;;;;;;;;;15.75;12.00;;;;;5.99;100.00;101516.84;5094451;27;45304;-70
2023/12/06 06:18:49;;;;;;;;;15.75;13.00;;;;;6.00;100.00;101536.94;5089471;27;45302;-70
2023/12/06 06:21:15;;;;;;;;;19.50;16.50;;;;;5.95;100.00;101517.78;5079958;27;45558;-70
2023/12/06 06:23:40;;;;;;;;;24.00;19.50;;;;;5.92;100.00;101518.72;5087085;27;46514;-70
2023/12/06 06:26:07;;;;;;;;;15.75;15.75;;;;;5.98;100.00;101538.72;5086309;27;45405;-70
2023/12/06 06:28:32;;;;;;;;;14.50;13.25;;;;;5.96;100.00;101522.13;5088499;27;45393;-70
2023/12/06 06:30:58;;;;;;;;;14.25;12.00;;;;;6.00;100.00;101531.69;5089596;27;45487;-70
2023/12/06 06:33:23;;;;;;;;;16.75;14.00;;;;;5.99;100.00;101537.84;5084925;27;45318;-70
2023/12/06 06:35:48;;;;;;;;;13.75;13.75;;;;;5.98;100.00;101533.47;5097739;27;45376;-70
2023/12/06 06:38:14;;;;;;;;;13.00;13.00;;;;;5.99;100.00;101535.22;5089846;27;45298;-70
2023/12/06 06:40:39;;;;;;;;;18.00;17.25;;;;;5.96;100.00;101543.13;5084583;27;45286;-69
2023/12/06 06:43:06;;;;;;;;;21.00;18.75;;;;;5.88;100.00;101534.53;5082003;27;46295;-69
2023/12/06 06:45:31;;;;;;;;;17.50;14.00;;;;;5.86;100.00;101544.19;5082981;27;45535;-69
2023/12/06 06:47:56;;;;;;;;;14.25;13.00;;;;;5.85;100.00;101561.66;5079214;27;45481;-69
2023/12/06 06:50:22;;;;;;;;;14.00;13.00;;;;;5.81;100.00;101556.47;5082310;27;45424;-69
2023/12/06 06:52:47;;;;;;;;;15.25;13.25;;;;;5.77;100.00;101558.28;5094302;27;45207;-70
2023/12/06 06:55:12;;;;;;;;;23.50;18.00;;;;;5.68;100.00;101561.03;5079022;27;45403;-70
2023/12/06 06:57:38;;;;;;;;;15.00;13.25;;;;;5.70;100.00;101573.25;5094818;27;45327;-70
2023/12/06 07:00:06;;;;;;;;;20.50;18.00;;;;;5.68;100.00;101568.91;5094412;27;45502;-70
2023/12/06 07:02:32;;;;;;;;;13.50;13.50;;;;;5.62;100.00;101559.38;5083750;27;45389;-70
2023/12/06 07:05:00;;;;;;;;;18.00;13.50;;;;;5.63;100.00;101574.22;5095469;27;45402;-69
2023/12/06 07:07:25;;;;;;;;;20.00;14.75;;;;;5.61;100.00;101572.50;5082635;27;45389;-69
2023/12/06 07:09:51;;;;;;;;;17.50;16.50;;;;;5.51;100.00;101566.53;5081924;27;45450;-69
2023/12/06 07:12:16;;;;;;;;;17.75;17.50;;;;;5.56;100.00;101574.34;5080610;27;45219;-70
2023/12/06 07:14:42;;;;;;;;;15.25;15.00;;;;;5.53;100.00;101577.88;5092116;27;45251;-70
2023/12/06 07:17:10;;;;;;;;;15.50;15.50;;;;;5.44;100.00;101564.88;5085630;27;45264;-70
2023/12/06 07:19:36;;;;;;;;;16.50;15.00;;;;;5.43;100.00;101568.38;5063289;28;45415;-71
2023/12/06 07:22:01;;;;;;;;;17.75;16.00;;;;;5.53;100.00;101592.75;5084854;27;46118;-72
2023/12/06 07:24:26;;;;;;;;;20.50;16.00;;;;;5.54;100.00;101597.97;5084971;27;45483;-72
2023/12/06 07:26:52;;;;;;;;;16.25;12.00;;;;;5.55;100.00;101607.59;5086237;27;45383;-72
2023/12/06 07:29:17;;;;;;;;;18.00;16.25;;;;;5.54;100.00;101611.09;5081837;27;45426;-72
2023/12/06 07:31:43;;;;;;;;;20.50;16.00;;;;;5.53;100.00;101613.75;5086524;27;45499;-71
2023/12/06 07:34:09;;;;;;;;;15.75;15.00;;;;;5.47;100.00;101613.81;5090733;27;45287;-72
2023/12/06 07:36:35;;;;;;;;;18.50;17.25;;;;;5.32;100.00;101603.53;5095156;27;45530;-71
2023/12/06 07:39:00;;;;;;;;;22.75;18.00;;;;;5.43;100.00;101617.38;5073832;27;45425;-71
2023/12/06 07:41:26;;;;;;;;;22.25;15.00;;;;;5.36;100.00;101620.97;5083515;27;56633;-71
2023/12/06 07:43:51;;;;;;;;;16.75;14.50;;;;;5.32;100.00;101609.66;5088091;27;45287;-71
2023/12/06 07:46:17;;;;;;;;;18.00;17.00;;;;;5.25;100.00;101602.75;5087725;27;45446;-71
2023/12/06 07:48:42;;;;;;;;;22.50;19.50;;;;;5.24;100.00;101622.84;5086853;27;45508;-71
2023/12/06 07:51:07;;;;;;;;;23.50;16.25;;;;;5.23;100.00;101615.84;5075244;27;47081;-71
2023/12/06 07:53:33;;;;;;;;;22.00;17.50;;;;;5.20;100.00;101613.28;5078387;27;45264;-71
2023/12/06 07:55:58;;;;;;;;;20.50;17.75;;;;;5.10;100.00;101601.19;5091272;27;45238;-71
2023/12/06 07:58:30;;;;;;;;;20.75;18.25;;;;;5.13;100.00;101609.03;5076717;27;45481;-71
2023/12/06 08:00:58;;;;;;;;;20.75;19.25;;;;;5.14;100.00;101618.59;5101724;27;46110;-71
2023/12/06 08:03:30;;;;;;;;;26.00;23.00;;;;;5.20;100.00;101634.25;5078306;27;45604;-71
2023/12/06 08:05:55;;;;;;;;;30.50;23.50;;;;;5.17;100.00;101636.91;5094183;27;45321;-71
2023/12/06 08:08:21;;;;;;;;;25.25;23.50;;;;;5.20;100.00;101636.88;5071845;28;45426;-72
2023/12/06 08:10:46;;;;;;;;;25.50;22.25;;;;;5.20;100.00;101631.63;5096500;27;45487;-71
2023/12/06 08:13:12;;;;;;;;;29.25;22.50;;;;;5.28;100.00;101636.78;5088174;27;45551;-71
2023/12/06 08:15:37;;;;;;;;;25.25;25.25;;;;;5.24;100.00;101628.09;5091893;27;45289;-71
2023/12/06 08:18:03;;;;;;;;;19.00;19.00;;;;;5.29;100.00;101638.53;5090981;27;45410;-72
2023/12/06 08:20:28;;;;;;;;;26.50;22.50;;;;;5.33;100.00;101655.09;5093219;27;45531;-71
2023/12/06 08:22:54;;;;;;;;;9.00;9.00;;;;;5.33;100.00;101650.72;5089782;27;46496;-72
2023/12/06 08:25:20;;;;;;;;;21.50;18.50;;;;;5.33;100.00;101653.34;5090229;27;45513;-72
2023/12/06 08:27:45;;;;;;;;;20.75;17.00;;;;;5.37;100.00;101660.28;5088351;27;45366;-72
2023/12/06 08:30:11;;;;;;;;;18.75;17.00;;;;;5.39;100.00;101658.53;5099247;27;45216;-71
2023/12/06 08:32:36;;;;;;;;;20.25;17.75;;;;;5.41;100.00;101658.50;5078253;27;45415;-72
2023/12/06 08:35:02;;;;;;;;;24.25;18.75;;;;;5.27;100.00;101628.97;5083904;27;45241;-72
2023/12/06 08:37:27;;;;;;;;;20.50;18.00;;;;;5.45;100.00;101649.69;5081872;27;45251;-72
2023/12/06 08:39:53;;;;;;;;;23.50;21.50;;;;;5.51;100.00;101662.72;5100415;27;45510;-71
2023/12/06 08:42:18;;;;;;;;;23.00;19.00;;;;;5.55;100.00;101659.19;5090624;27;45196;-71
2023/12/06 08:44:44;;;;;;;;;23.25;20.00;;;;;5.57;100.00;101663.53;5098681;27;45356;-71
2023/12/06 08:47:10;;;;;;;;;18.00;17.00;;;;;5.63;100.00;101668.69;5099802;27;45376;-71
2023/12/06 08:49:39;;;;;;;;;22.25;22.25;;;;;5.56;100.00;101648.66;5089557;27;45364;-71
2023/12/06 08:52:08;;;;;;;;;19.75;18.00;;;;;5.69;100.00;101665.97;5087957;27;45185;-72
2023/12/06 08:54:34;;;;;;;;;26.00;21.00;;;;;5.74;100.00;101669.44;5094082;27;45370;-72
2023/12/06 08:57:00;;;;;;;;;23.75;18.00;;;;;5.76;100.00;101658.88;5076200;27;45346;-72
2023/12/06 08:59:25;;;;;;;;;23.50;19.25;;;;;5.75;100.00;101665.91;5082738;27;46091;-72
2023/12/06 09:01:51;;;;;;;;;21.00;18.50;;;;;5.84;100.00;101669.28;5081456;27;45287;-71
2023/12/06 09:04:17;;;;;;;;;23.50;20.00;;;;;5.86;100.00;101662.31;5093857;27;45278;-72
2023/12/06 09:06:42;;;;;;;;;21.00;19.00;;;;;5.85;100.00;101660.53;5082118;27;45310;-71
2023/12/06 09:09:08;;;;;;;;;23.25;19.00;;;;;5.79;100.00;101641.34;5086455;27;45271;-71
2023/12/06 09:11:33;;;;;;;;;25.75;22.00;;;;;5.97;100.00;101666.50;5088135;27;45260;-71
2023/12/06 09:13:59;;;;;;;;;25.50;21.25;;;;;5.98;100.00;101664.75;5097621;27;45521;-71
2023/12/06 09:16:24;;;;;;;;;24.75;20.25;;;;;5.98;100.00;101660.38;5086286;27;45349;-71
2023/12/06 09:18:49;;;;;;;;;18.00;15.25;;;;;5.99;100.00;101658.63;5095210;27;46059;-71
2023/12/06 09:21:15;;;;;;;;;22.00;19.75;;;;;5.96;100.00;101658.63;5088985;27;45358;-71
2023/12/06 09:23:40;;;;;;;;;26.00;21.25;;;;;6.06;100.00;101661.13;5074764;27;45304;-72
2023/12/06 09:26:06;;;;;;;;;18.75;17.50;;;;;6.09;100.00;101665.44;5093711;27;45420;-71
2023/12/06 09:28:31;;;;;;;;;22.25;20.00;;;;;6.02;100.00;101650.69;5084924;27;46302;-71
2023/12/06 09:30:57;;;;;;;;;25.50;22.00;;;;;6.12;100.00;101662.78;5082439;27;45251;-71
2023/12/06 09:33:22;;;;;;;;;23.25;22.00;;;;;6.23;100.00;101681.88;5083894;27;46419;-71
2023/12/06 09:35:48;;;;;;;;;20.50;18.75;;;;;6.18;100.00;101665.34;5071446;27;45807;-71
2023/12/06 09:38:13;;;;;;;;;25.75;23.75;;;;;6.21;100.00;101665.28;5082496;27;45368;-71
2023/12/06 09:40:39;;;;;;;;;18.50;18.50;;;;;6.16;100.00;101653.97;5086792;27;45227;-71
2023/12/06 09:43:04;;;;;;;;;35.50;28.25;;;;;6.32;100.00;101673.84;5076722;27;45488;-71
2023/12/06 09:45:30;;;;;;;;;26.75;26.75;;;;;6.36;100.00;101688.66;5091070;27;45494;-71
2023/12/06 09:47:56;;;;;;;;;29.50;26.00;;;;;6.36;100.00;101680.78;5080601;28;45425;-71
2023/12/06 09:50:25;;;;;;;;;29.75;24.00;;;;;6.44;100.00;101683.31;5085514;27;45409;-71
2023/12/06 09:52:54;;;;;;;;;32.00;27.25;;;;;6.46;100.00;101690.25;5097006;27;45246;-71
2023/12/06 09:55:24;;;;;;;;;28.75;24.00;;;;;6.48;100.00;101698.13;5100241;27;45260;-72
2023/12/06 09:57:54;;;;;;;;;23.75;21.75;;;;;6.48;100.00;101695.50;5070747;28;47995;-73
2023/12/06 10:00:20;;;;;;;;;28.25;24.50;;;;;6.53;100.00;101693.66;5083471;27;45893;-73
2023/12/06 10:02:51;;;;;;;;;28.25;26.25;;;;;6.56;100.00;101697.09;5079891;27;45397;-73
2023/12/06 10:05:16;;;;;;;;;25.50;23.75;;;;;6.55;100.00;101691.88;5083364;27;45334;-73
2023/12/06 10:07:42;;;;;;;;;36.00;30.50;;;;;6.62;100.00;101699.63;5087397;27;46279;-73
2023/12/06 10:10:18;;;;;;;;;26.75;22.50;;;;;6.64;100.00;101702.25;5098140;27;45937;-72
2023/12/06 10:12:57;;;;;;;;;26.00;22.75;;;;;6.62;100.00;101686.50;5093274;27;45429;-73
2023/12/06 10:15:23;;;;;;;;;25.25;23.75;;;;;6.63;100.00;101687.38;5085040;27;45577;-72
2023/12/06 10:17:49;;;;;;;;;26.50;23.50;;;;;6.81;100.00;101702.81;5088321;27;45519;-72
2023/12/06 10:20:16;;;;;;;;;29.25;22.75;;;;;6.85;100.00;101712.38;5087795;27;45271;-72
2023/12/06 10:22:42;;;;;;;;;32.50;23.75;;;;;6.88;100.00;101711.44;5080660;27;45412;-72
2023/12/06 10:25:10;;;;;;;;;25.75;23.50;;;;;6.95;100.00;101711.31;5067464;27;45528;-72
2023/12/06 10:27:36;;;;;;;;;25.25;23.00;;;;;7.01;100.00;101710.34;5085495;27;45389;-72
2023/12/06 10:30:06;;;;;;;;;29.00;24.50;;;;;6.93;100.00;101683.34;5089147;27;45427;-72
2023/12/06 10:32:32;;;;;;;;;20.50;20.50;;;;;6.96;100.00;101691.16;5085708;27;45413;-72
2023/12/06 10:34:59;;;;;;;;;21.00;19.50;;;;;7.11;100.00;101709.28;5082212;27;45429;-73
2023/12/06 10:37:27;;;;;;;;;23.75;19.25;;;;;7.13;100.00;101705.72;5084753;27;46953;-72
2023/12/06 10:39:59;;;;;;;;;28.00;22.75;;;;;7.17;100.00;101698.66;5081490;27;45344;-72
2023/12/06 10:42:30;;;;;;;;;32.75;25.25;;;;;7.22;100.00;101697.69;5091247;27;45497;-72
2023/12/06 10:44:59;;;;;;;;;29.25;23.00;;;;;7.28;100.00;101694.94;5088423;27;45353;-73
2023/12/06 10:47:25;;;;;;;;;35.25;21.25;;;;;7.28;100.00;101692.28;5086726;27;45409;-72
2023/12/06 10:49:54;;;;;;;;;31.75;25.50;;;;;7.32;100.00;101693.97;5095253;27;45393;-72
2023/12/06 10:52:20;;;;;;;;;25.25;21.75;;;;;7.24;100.00;101677.47;5078365;27;45399;-72
2023/12/06 10:54:47;;;;;;;;;30.00;24.50;;;;;7.40;100.00;101704.34;5082198;27;45391;-72
2023/12/06 10:57:12;;;;;;;;;30.00;27.50;;;;;7.40;100.00;101701.69;5075531;27;47677;-72
2023/12/06 10:59:39;;;;;;;;;29.75;26.25;;;;;7.24;100.00;101664.31;5093392;27;45432;-72
2023/12/06 11:02:07;;;;;;;;;28.00;24.50;;;;;7.53;100.00;101691.78;5085471;27;45421;-72
2023/12/06 11:04:37;;;;;;;;;26.00;23.25;;;;;7.58;100.00;101689.94;5084030;27;45338;-72